Time;durP1;ratioP1;P1;durP2;ratioP2;P2;SDS_P1;SDS_P2;PMS_P1;PMS_P2;Temp;Humidity;BMP_temperature;BMP_pressure;BME280_temperature;BME280_humidity;BME280_pressure;Samples;Min_cycle;Max_cycle;Signal;HPM_P1;HPM_P2
2021/04/22 00:01:53;;;;;;;11.30;2.17;;;;;;;6.55;100.00;97854.31;5048119;28;20049;-77
2021/04/22 00:04:19;;;;;;;14.13;2.00;;;;;;;6.50;100.00;97858.91;5031228;28;20117;-77
2021/04/22 00:06:51;;;;;;;12.65;1.52;;;;;;;6.44;100.00;97862.72;5031753;28;20049;-77
2021/04/22 00:09:17;;;;;;;13.73;2.25;;;;;;;6.41;100.00;97857.91;5034011;28;20149;-78
2021/04/22 00:11:43;;;;;;;15.38;1.90;;;;;;;6.35;100.00;97867.91;5033892;28;20119;-78
2021/04/22 00:14:10;;;;;;;11.15;1.55;;;;;;;6.12;100.00;97856.00;5032828;28;20052;-77
2021/04/22 00:16:36;;;;;;;12.27;2.15;;;;;;;6.15;100.00;97865.38;5034783;28;20045;-78
2021/04/22 00:19:03;;;;;;;12.50;2.00;;;;;;;5.98;100.00;97863.09;5034644;28;20072;-77
2021/04/22 00:21:30;;;;;;;11.13;2.05;;;;;;;5.94;100.00;97867.41;5035552;28;20076;-78
2021/04/22 00:23:55;;;;;;;12.10;1.85;;;;;;;5.91;100.00;97875.25;5032766;28;20052;-78
2021/04/22 00:26:22;;;;;;;12.43;2.20;;;;;;;5.86;100.00;97868.00;5018472;28;20046;-77
2021/04/22 00:28:49;;;;;;;14.77;2.35;;;;;;;5.77;100.00;97875.03;5023881;28;20045;-77
2021/04/22 00:31:16;;;;;;;17.02;1.80;;;;;;;5.73;100.00;97886.59;5040107;28;20101;-77
2021/04/22 00:33:42;;;;;;;9.80;1.92;;;;;;;5.53;100.00;97885.63;5036423;28;20046;-77
2021/04/22 00:36:09;;;;;;;20.55;2.17;;;;;;;5.32;100.00;97884.09;5050492;28;20060;-77
2021/04/22 00:38:35;;;;;;;9.90;1.85;;;;;;;5.19;100.00;97886.59;5033409;28;20045;-78
2021/04/22 00:41:02;;;;;;;9.95;1.63;;;;;;;5.16;100.00;97892.50;5035482;28;20037;-77
2021/04/22 00:43:29;;;;;;;13.30;2.25;;;;;;;5.07;100.00;97891.44;5035488;28;20041;-79
2021/04/22 00:45:55;;;;;;;10.52;1.60;;;;;;;5.09;100.00;97903.50;5037149;28;20128;-79
2021/04/22 00:48:25;;;;;;;12.40;2.00;;;;;;;5.08;100.00;97907.28;5036928;28;20042;-79
2021/04/22 00:50:52;;;;;;;9.55;1.88;;;;;;;5.17;100.00;97904.81;5017222;28;20049;-77
2021/04/22 00:53:20;;;;;;;16.77;1.90;;;;;;;5.16;100.00;97908.59;5029229;28;20041;-77
2021/04/22 00:55:47;;;;;;;17.05;2.40;;;;;;;5.11;100.00;97913.97;5047635;28;20060;-78
2021/04/22 00:58:15;;;;;;;16.50;2.00;;;;;;;5.11;100.00;97912.06;5032633;28;20042;-77
2021/04/22 01:00:44;;;;;;;16.13;2.00;;;;;;;5.13;100.00;97911.81;5035878;28;20037;-78
2021/04/22 01:03:11;;;;;;;19.83;2.00;;;;;;;5.05;100.00;97923.91;5031676;28;20121;-79
2021/04/22 01:05:45;;;;;;;14.45;2.20;;;;;;;5.03;100.00;97929.53;5031858;28;20045;-77
2021/04/22 01:08:13;;;;;;;21.25;1.95;;;;;;;5.03;100.00;97924.16;5049205;28;20107;-77
2021/04/22 01:10:39;;;;;;;9.57;1.63;;;;;;;5.03;100.00;97928.75;5046696;28;20045;-77
2021/04/22 01:13:06;;;;;;;15.55;2.25;;;;;;;4.99;100.00;97933.84;5030737;28;20517;-77
2021/04/22 01:15:33;;;;;;;14.50;2.05;;;;;;;5.00;100.00;97930.09;5033455;28;20049;-77
2021/04/22 01:18:01;;;;;;;15.25;1.98;;;;;;;4.96;100.00;97930.91;5054093;28;20060;-78
2021/04/22 01:20:34;;;;;;;19.17;2.13;;;;;;;4.93;100.00;97937.59;5056039;28;20132;-79
2021/04/22 01:23:05;;;;;;;9.93;1.83;;;;;;;4.73;100.00;97929.59;5038759;28;20132;-77
2021/04/22 01:25:44;;;;;;;16.42;2.28;;;;;;;4.80;100.00;97932.78;5039058;28;20091;-77
2021/04/22 01:28:14;;;;;;;11.13;2.00;;;;;;;4.74;100.00;97941.94;5055445;28;20060;-77
2021/04/22 01:30:49;;;;;;;9.98;1.88;;;;;;;4.64;100.00;97946.50;5039159;28;20604;-78
2021/04/22 01:33:19;;;;;;;13.23;2.13;;;;;;;4.55;100.00;97956.13;5055517;28;20042;-77
2021/04/22 01:35:49;;;;;;;17.80;2.13;;;;;;;4.26;100.00;97955.84;5041050;28;20041;-79
2021/04/22 01:38:17;;;;;;;18.05;1.95;;;;;;;4.08;100.00;97967.88;5039450;28;20045;-78
2021/04/22 01:40:44;;;;;;;15.55;2.13;;;;;;;3.95;100.00;97970.28;5037080;28;20475;-77
2021/04/22 01:43:11;;;;;;;17.42;2.65;;;;;;;3.94;100.00;97963.31;5020084;28;20049;-77
2021/04/22 01:45:38;;;;;;;19.52;2.15;;;;;;;3.77;100.00;97963.50;5037975;28;20052;-78
2021/04/22 01:48:04;;;;;;;19.95;2.28;;;;;;;3.68;100.00;97970.44;5019934;28;20049;-77
2021/04/22 01:50:32;;;;;;;20.00;2.20;;;;;;;3.62;100.00;97969.63;5038097;28;20111;-77
2021/04/22 01:52:59;;;;;;;20.05;2.22;;;;;;;3.47;100.00;97950.81;5052668;28;20037;-78
2021/04/22 01:55:32;;;;;;;25.13;2.90;;;;;;;3.36;100.00;97962.53;5037921;28;20060;-78
2021/04/22 01:58:03;;;;;;;19.90;2.88;;;;;;;3.29;100.00;97963.84;5036577;28;20438;-78
2021/04/22 02:00:35;;;;;;;15.38;2.88;;;;;;;3.13;100.00;97953.06;5039382;28;20045;-78
2021/04/22 02:03:05;;;;;;;16.17;2.55;;;;;;;3.11;100.00;97959.75;5039963;28;20111;-78
2021/04/22 02:05:31;;;;;;;28.80;3.35;;;;;;;3.01;100.00;97962.34;5040857;28;20053;-78
2021/04/22 02:07:57;;;;;;;20.88;2.28;;;;;;;3.02;100.00;97970.09;5039442;28;20072;-78
2021/04/22 02:10:24;;;;;;;18.40;2.72;;;;;;;3.02;100.00;97969.31;5040239;28;20072;-77
2021/04/22 02:12:51;;;;;;;24.00;2.42;;;;;;;2.98;100.00;97978.91;5036873;28;20726;-78
2021/04/22 02:15:25;;;;;;;24.92;2.85;;;;;;;2.89;100.00;97975.91;5040371;28;20049;-77
2021/04/22 02:17:52;;;;;;;26.13;2.83;;;;;;;2.89;100.00;97973.22;5041947;28;20061;-78
2021/04/22 02:20:19;;;;;;;22.95;2.42;;;;;;;2.84;100.00;97972.41;5056889;28;20065;-78
2021/04/22 02:22:47;;;;;;;22.58;2.80;;;;;;;2.81;100.00;97964.91;5023849;28;20037;-78
2021/04/22 02:25:18;;;;;;;22.33;3.05;;;;;;;2.82;100.00;97980.66;5042022;28;20431;-78
2021/04/22 02:27:45;;;;;;;31.33;3.10;;;;;;;2.77;100.00;97977.16;5040612;28;20067;-78
2021/04/22 02:30:18;;;;;;;26.85;3.13;;;;;;;2.67;100.00;97974.41;5042048;28;20044;-78
2021/04/22 02:32:45;;;;;;;19.20;2.38;;;;;;;2.66;100.00;97972.81;5038296;28;20109;-78
2021/04/22 02:35:13;;;;;;;19.58;2.80;;;;;;;2.64;100.00;97990.94;5036126;28;20041;-78
2021/04/22 02:37:39;;;;;;;24.83;2.72;;;;;;;2.61;100.00;97981.56;5052622;28;20560;-78
2021/04/22 02:40:13;;;;;;;22.73;2.65;;;;;;;2.53;100.00;97991.94;5035832;28;20059;-78
2021/04/22 02:42:40;;;;;;;16.80;2.38;;;;;;;2.44;100.00;97987.06;5035002;28;20073;-78
2021/04/22 02:45:13;;;;;;;18.42;2.70;;;;;;;2.34;100.00;97997.66;5019543;28;20073;-79
2021/04/22 02:47:39;;;;;;;23.95;2.78;;;;;;;2.33;100.00;97990.69;5039782;28;20029;-79
2021/04/22 02:50:09;;;;;;;28.65;3.28;;;;;;;2.27;100.00;97990.91;5040206;28;20049;-79
2021/04/22 02:52:35;;;;;;;19.83;3.08;;;;;;;2.20;100.00;97987.63;5050984;28;20042;-78
2021/04/22 02:55:03;;;;;;;21.13;2.53;;;;;;;2.18;100.00;97987.06;5036609;28;20053;-77
2021/04/22 02:57:30;;;;;;;23.23;2.45;;;;;;;2.18;100.00;97981.72;5038349;28;20516;-78
2021/04/22 02:59:56;;;;;;;28.48;3.03;;;;;;;2.14;100.00;97981.41;5040414;28;20045;-78
2021/04/22 03:02:22;;;;;;;22.75;3.17;;;;;;;2.09;100.00;97983.25;5035832;28;20048;-79
2021/04/22 03:04:49;;;;;;;16.27;2.35;;;;;;;2.05;100.00;97988.28;5052527;28;20041;-78
2021/04/22 03:07:15;;;;;;;19.42;2.80;;;;;;;1.98;100.00;97993.00;5042337;28;20468;-78
2021/04/22 03:09:41;;;;;;;23.30;3.28;;;;;;;2.00;100.00;97984.75;5044306;28;20080;-78
2021/04/22 03:12:08;;;;;;;22.15;2.63;;;;;;;1.98;100.00;97994.88;5058578;28;20041;-78
2021/04/22 03:14:34;;;;;;;22.67;2.97;;;;;;;1.90;100.00;97996.13;5034800;28;20060;-78
2021/04/22 03:17:01;;;;;;;27.92;3.15;;;;;;;1.91;100.00;97994.28;5036605;28;20128;-78
2021/04/22 03:19:28;;;;;;;24.00;3.33;;;;;;;1.90;100.00;98001.47;5056501;28;20105;-78
2021/04/22 03:21:54;;;;;;;24.55;3.72;;;;;;;1.92;100.00;97995.88;5041182;28;20386;-77
2021/04/22 03:24:21;;;;;;;30.60;3.80;;;;;;;1.87;100.00;97993.94;5037212;28;20049;-78
2021/04/22 03:26:49;;;;;;;19.58;2.78;;;;;;;1.73;100.00;97992.75;5037332;28;20048;-78
2021/04/22 03:29:15;;;;;;;24.13;3.20;;;;;;;1.68;100.00;97992.66;5039625;28;20048;-77
2021/04/22 03:31:42;;;;;;;20.13;3.42;;;;;;;1.63;100.00;97979.25;5043055;28;20053;-77
2021/04/22 03:34:08;;;;;;;24.13;3.20;;;;;;;1.59;100.00;97992.31;5027911;28;20057;-78
2021/04/22 03:36:34;;;;;;;28.48;3.42;;;;;;;1.57;100.00;97991.75;5061647;28;20071;-78
2021/04/22 03:39:00;;;;;;;23.15;3.08;;;;;;;1.56;100.00;98002.66;5058211;28;20049;-77
2021/04/22 03:41:26;;;;;;;25.48;3.65;;;;;;;1.49;100.00;97989.50;5063099;28;20038;-78
2021/04/22 03:43:52;;;;;;;25.20;3.85;;;;;;;1.53;100.00;97984.47;5040662;28;20042;-78
2021/04/22 03:46:18;;;;;;;26.55;4.60;;;;;;;1.49;100.00;98007.38;5039535;28;20128;-78
2021/04/22 03:48:45;;;;;;;23.92;4.30;;;;;;;1.44;100.00;98002.78;5035049;28;20045;-78
2021/04/22 03:51:12;;;;;;;20.08;3.40;;;;;;;1.40;100.00;98003.50;5025170;28;20038;-77
2021/04/22 03:53:38;;;;;;;30.92;3.78;;;;;;;1.40;100.00;98008.84;5033117;28;20052;-77
2021/04/22 03:56:04;;;;;;;23.75;3.63;;;;;;;1.40;100.00;98004.31;5034596;28;20056;-77
2021/04/22 03:58:30;;;;;;;15.73;3.35;;;;;;;1.38;100.00;98008.28;5031747;28;20045;-78
2021/04/22 04:00:56;;;;;;;31.63;4.32;;;;;;;1.36;100.00;98010.41;5015230;28;20161;-78
2021/04/22 04:03:22;;;;;;;25.17;4.03;;;;;;;1.36;100.00;98010.41;5032276;28;20041;-77
2021/04/22 04:05:49;;;;;;;35.05;4.65;;;;;;;1.38;100.00;98011.78;5050743;28;20627;-78
2021/04/22 04:08:16;;;;;;;26.98;4.57;;;;;;;1.33;100.00;98017.03;5049996;23;20239;-78
2021/04/22 04:10:42;;;;;;;28.02;4.30;;;;;;;1.37;100.00;98009.34;5055139;28;20068;-78
2021/04/22 04:13:08;;;;;;;29.60;4.00;;;;;;;1.39;100.00;98017.91;5054668;28;20045;-78
2021/04/22 04:15:35;;;;;;;22.73;3.70;;;;;;;1.39;100.00;98012.56;5031251;28;20045;-77
2021/04/22 04:18:03;;;;;;;22.25;3.42;;;;;;;1.42;100.00;98020.09;5064920;28;20037;-78
2021/04/22 04:20:32;;;;;;;24.55;4.00;;;;;;;1.44;100.00;98026.78;5069672;28;20063;-77
2021/04/22 04:22:59;;;;;;;23.90;4.35;;;;;;;1.40;100.00;98020.31;5050659;28;20048;-77
2021/04/22 04:25:25;;;;;;;23.85;3.83;;;;;;;1.51;100.00;98035.41;5036561;23;20060;-80
2021/04/22 04:27:51;;;;;;;25.08;3.90;;;;;;;1.48;100.00;98024.41;5042930;28;20097;-81
2021/04/22 04:30:19;;;;;;;24.55;4.50;;;;;;;1.51;100.00;98030.06;5067018;28;20286;-83
2021/04/22 04:32:46;;;;;;;26.42;4.97;;;;;;;1.50;100.00;98030.31;5027894;28;20087;-78
2021/04/22 04:35:13;;;;;;;20.85;3.70;;;;;;;1.46;100.00;98040.69;5030198;28;20053;-77
2021/04/22 04:37:40;;;;;;;33.00;4.38;;;;;;;1.48;100.00;98041.25;5009534;28;20049;-77
2021/04/22 04:40:08;;;;;;;26.92;3.92;;;;;;;1.54;100.00;98050.13;4992786;28;20441;-77
2021/04/22 04:42:35;;;;;;;23.85;3.95;;;;;;;1.52;100.00;98045.03;5009695;28;20050;-78
2021/04/22 04:45:04;;;;;;;37.28;4.20;;;;;;;1.55;100.00;98041.84;5027064;28;20053;-78
2021/04/22 04:47:30;;;;;;;22.75;3.67;;;;;;;1.63;100.00;98053.97;5034901;28;20107;-80
2021/04/22 04:49:56;;;;;;;34.88;4.40;;;;;;;1.66;100.00;98050.81;5015289;28;20053;-78
2021/04/22 04:52:23;;;;;;;22.95;3.53;;;;;;;1.71;100.00;98053.53;5033217;28;20048;-78
2021/04/22 04:54:49;;;;;;;26.30;4.43;;;;;;;1.85;100.00;98050.28;5036736;28;20052;-78
2021/04/22 04:57:15;;;;;;;23.70;3.60;;;;;;;1.84;100.00;98055.84;5037266;28;20033;-79
2021/04/22 04:59:41;;;;;;;31.70;3.70;;;;;;;1.98;100.00;98058.94;5028908;28;20046;-79
2021/04/22 05:02:07;;;;;;;40.40;5.63;;;;;;;2.10;100.00;98063.09;5037050;28;20088;-78
2021/04/22 05:04:33;;;;;;;32.50;3.95;;;;;;;2.36;100.00;98073.00;5000819;28;20049;-78
2021/04/22 05:07:02;;;;;;;39.10;4.03;;;;;;;2.30;100.00;98067.84;4993675;28;20042;-78
2021/04/22 05:09:28;;;;;;;33.75;4.25;;;;;;;2.27;100.00;98074.50;4996304;28;20485;-79
2021/04/22 05:11:54;;;;;;;19.33;3.90;;;;;;;2.41;100.00;98088.28;5013535;28;20038;-79
2021/04/22 05:14:20;;;;;;;29.63;4.60;;;;;;;2.49;100.00;98074.47;5024050;28;20056;-80
2021/04/22 05:16:48;;;;;;;32.13;4.80;;;;;;;2.62;100.00;98073.25;5023525;28;20041;-76
2021/04/22 05:19:14;;;;;;;35.65;4.20;;;;;;;2.69;100.00;98073.84;5028997;28;20049;-78
2021/04/22 05:21:40;;;;;;;23.15;3.78;;;;;;;2.85;100.00;98075.59;5014580;28;20529;-78
2021/04/22 05:24:08;;;;;;;16.60;4.03;;;;;;;2.87;100.00;98065.44;5002817;28;20041;-79
2021/04/22 05:26:34;;;;;;;28.02;4.05;;;;;;;2.84;100.00;98065.97;5040121;28;20131;-79
2021/04/22 05:29:00;;;;;;;26.55;4.50;;;;;;;2.86;100.00;98079.91;5032930;28;20520;-79
2021/04/22 05:31:26;;;;;;;25.23;4.07;;;;;;;2.75;100.00;98070.16;5014540;28;20040;-79
2021/04/22 05:33:52;;;;;;;22.88;4.00;;;;;;;2.83;100.00;98080.41;5032098;28;20056;-79
2021/04/22 05:36:19;;;;;;;29.92;4.80;;;;;;;2.90;100.00;98081.81;5031291;28;20080;-79
2021/04/22 05:38:45;;;;;;;30.92;4.57;;;;;;;3.02;100.00;98081.66;5033066;28;20092;-79
2021/04/22 05:41:12;;;;;;;30.98;4.05;;;;;;;3.05;100.00;98084.59;5033417;28;20152;-78
2021/04/22 05:43:38;;;;;;;25.08;4.60;;;;;;;3.15;100.00;98079.31;5000505;28;20049;-78
2021/04/22 05:46:04;;;;;;;30.92;4.95;;;;;;;3.29;100.00;98077.03;5032665;28;20299;-79
2021/04/22 05:48:30;;;;;;;26.58;4.22;;;;;;;3.36;100.00;98093.66;5015938;28;20056;-79
2021/04/22 05:50:57;;;;;;;28.73;4.60;;;;;;;3.39;100.00;98079.75;5015301;28;20084;-80
2021/04/22 05:53:23;;;;;;;28.42;4.68;;;;;;;3.55;100.00;98091.38;5013415;28;20073;-80
2021/04/22 05:55:49;;;;;;;27.30;4.30;;;;;;;3.61;100.00;98099.16;4996211;28;20061;-79
2021/04/22 05:58:15;;;;;;;22.52;4.07;;;;;;;3.65;100.00;98092.25;4996037;28;20045;-79
2021/04/22 06:00:41;;;;;;;27.85;4.13;;;;;;;3.63;100.00;98088.22;5012064;28;20050;-79
2021/04/22 06:03:08;;;;;;;26.95;3.80;;;;;;;3.72;100.00;98094.69;5014300;28;20038;-79
2021/04/22 06:05:34;;;;;;;26.17;4.18;;;;;;;3.62;100.00;98092.75;5017911;28;20243;-79
2021/04/22 06:08:00;;;;;;;27.42;4.88;;;;;;;3.65;100.00;98081.53;5008085;28;20050;-79
2021/04/22 06:10:26;;;;;;;28.27;4.25;;;;;;;3.44;100.00;98052.22;5028497;28;20072;-79
2021/04/22 06:12:52;;;;;;;22.27;3.83;;;;;;;3.76;100.00;98085.88;5019300;28;20400;-79
2021/04/22 06:15:21;;;;;;;31.83;4.68;;;;;;;4.00;100.00;98098.84;5037683;28;20128;-79
2021/04/22 06:17:50;;;;;;;26.30;4.13;;;;;;;4.00;100.00;98101.53;5019311;28;20103;-80
2021/04/22 06:20:23;;;;;;;29.95;4.20;;;;;;;3.97;100.00;98102.06;5030030;28;20037;-79
2021/04/22 06:22:50;;;;;;;31.33;4.47;;;;;;;4.12;100.00;98104.78;5039172;28;20048;-80
2021/04/22 06:25:19;;;;;;;21.63;3.75;;;;;;;4.09;100.00;98095.41;5043761;28;20052;-80
2021/04/22 06:27:45;;;;;;;26.15;4.05;;;;;;;4.18;100.00;98101.84;5024758;28;20046;-79
2021/04/22 06:30:12;;;;;;;28.17;4.25;;;;;;;4.23;100.00;98101.09;5027961;28;20060;-79
2021/04/22 06:32:38;;;;;;;25.25;3.90;;;;;;;4.29;100.00;98108.06;5019769;28;20038;-80
2021/04/22 06:35:06;;;;;;;35.17;5.50;;;;;;;4.35;100.00;98109.72;5023086;28;20106;-81
2021/04/22 06:37:32;;;;;;;28.95;3.80;;;;;;;4.34;100.00;98110.75;5018063;28;20053;-79
2021/04/22 06:39:58;;;;;;;25.17;4.25;;;;;;;4.36;100.00;98117.47;5000081;28;20105;-80
2021/04/22 06:42:26;;;;;;;31.10;3.65;;;;;;;4.58;100.00;98119.97;5001840;28;20537;-80
2021/04/22 06:44:52;;;;;;;24.35;4.18;;;;;;;4.73;100.00;98124.53;5001193;28;20061;-78
2021/04/22 06:47:19;;;;;;;30.40;4.45;;;;;;;4.62;100.00;98122.94;5016051;28;20061;-78
2021/04/22 06:49:45;;;;;;;25.33;4.22;;;;;;;4.79;100.00;98128.84;5018707;28;20041;-78
2021/04/22 06:52:11;;;;;;;34.58;4.68;;;;;;;4.77;100.00;98139.06;5018709;28;20042;-78
2021/04/22 06:54:37;;;;;;;21.63;4.00;;;;;;;4.61;100.00;98130.16;5018340;28;20474;-78
2021/04/22 06:57:03;;;;;;;25.15;3.90;;;;;;;4.94;100.00;98147.66;5002892;28;20106;-79
2021/04/22 06:59:30;;;;;;;33.63;4.45;;;;;;;5.00;100.00;98139.38;5014205;28;20046;-79
2021/04/22 07:01:56;;;;;;;24.90;4.20;;;;;;;5.04;100.00;98116.28;5029320;28;20053;-78
2021/04/22 07:04:23;;;;;;;23.35;4.32;;;;;;;5.40;100.00;98122.47;5027415;28;20300;-79
2021/04/22 07:06:49;;;;;;;24.83;3.92;;;;;;;5.47;100.00;98128.34;5023967;28;20042;-78
2021/04/22 07:09:15;;;;;;;16.70;3.42;;;;;;;5.53;100.00;98137.22;5022339;28;20042;-80
2021/04/22 07:11:42;;;;;;;25.38;3.70;;;;;;;5.25;100.00;98118.97;5023155;28;20042;-80
2021/04/22 07:14:08;;;;;;;21.13;3.47;;;;;;;5.30;100.00;98137.75;5021548;28;20061;-79
2021/04/22 07:16:37;;;;;;;18.00;3.13;;;;;;;5.10;100.00;98133.19;4999824;28;20054;-80
2021/04/22 07:19:06;;;;;;;21.52;3.03;;;;;;;5.16;100.00;98137.50;5016626;28;20050;-79
2021/04/22 07:21:32;;;;;;;23.00;3.20;;;;;;;5.18;100.00;98148.78;5017761;28;20050;-79
2021/04/22 07:23:58;;;;;;;15.13;2.80;;;;;;;5.11;100.00;98147.44;5022302;28;20037;-81
2021/04/22 07:26:25;;;;;;;18.45;2.53;;;;;;;5.27;100.00;98139.09;5028335;28;20052;-80
2021/04/22 07:28:51;;;;;;;18.13;2.95;;;;;;;5.25;100.00;98146.63;5025752;28;20057;-80
2021/04/22 07:31:18;;;;;;;30.80;3.92;;;;;;;5.20;100.00;98138.56;5022745;28;20042;-78
2021/04/22 07:33:47;;;;;;;22.27;2.70;;;;;;;5.36;100.00;98136.69;5018498;28;20088;-79
2021/04/22 07:36:13;;;;;;;19.15;2.65;;;;;;;5.47;100.00;98157.88;5016828;28;20050;-79
2021/04/22 07:38:39;;;;;;;17.70;3.70;;;;;;;5.39;100.00;98141.53;5000367;28;20038;-79
2021/04/22 07:41:06;;;;;;;21.02;3.53;;;;;;;5.23;100.00;98156.00;5017932;28;20046;-78
2021/04/22 07:43:32;;;;;;;25.08;3.45;;;;;;;5.08;100.00;98150.63;5018846;28;20048;-80
2021/04/22 07:45:58;;;;;;;27.85;3.25;;;;;;;5.55;100.00;98156.53;5025397;28;20092;-79
2021/04/22 07:48:24;;;;;;;24.60;3.15;;;;;;;5.39;100.00;98152.28;5029946;28;20060;-79
2021/04/22 07:50:50;;;;;;;15.52;2.90;;;;;;;5.31;100.00;98145.56;5022242;28;20066;-78
2021/04/22 07:53:16;;;;;;;17.42;3.10;;;;;;;5.21;100.00;98144.75;5017938;28;20045;-78
2021/04/22 07:55:44;;;;;;;17.80;2.83;;;;;;;5.55;100.00;98151.16;5016991;28;20049;-80
2021/04/22 07:58:13;;;;;;;20.00;3.85;;;;;;;5.42;100.00;98152.53;5018359;28;20120;-79
2021/04/22 08:00:41;;;;;;;18.67;3.20;;;;;;;5.51;100.00;98158.16;5021650;28;20034;-80
2021/04/22 08:03:07;;;;;;;29.30;3.53;;;;;;;5.39;100.00;98141.53;5011674;28;20042;-80
2021/04/22 08:05:37;;;;;;;16.83;3.55;;;;;;;5.51;100.00;98158.97;5032641;28;20074;-80
2021/04/22 08:08:10;;;;;;;18.15;3.67;;;;;;;5.61;100.00;98174.28;5017783;28;20038;-79
2021/04/22 08:10:40;;;;;;;28.23;4.03;;;;;;;5.70;100.00;98158.44;5023297;28;20046;-79
2021/04/22 08:13:07;;;;;;;27.88;3.88;;;;;;;5.70;100.00;98147.69;5020752;28;20077;-78
2021/04/22 08:15:35;;;;;;;20.48;3.88;;;;;;;5.67;100.00;98170.53;5015692;28;20482;-78
2021/04/22 08:18:02;;;;;;;21.30;4.50;;;;;;;5.61;100.00;98166.22;5014032;28;20042;-78
2021/04/22 08:20:29;;;;;;;25.70;4.78;;;;;;;5.43;100.00;98158.69;5014184;28;20468;-79
2021/04/22 08:22:58;;;;;;;25.90;4.78;;;;;;;5.62;100.00;98167.84;5013160;28;20038;-79
2021/04/22 08:25:35;;;;;;;19.08;3.78;;;;;;;5.71;100.00;98165.41;5013429;28;20069;-79
2021/04/22 08:28:04;;;;;;;23.52;3.85;;;;;;;5.64;100.00;98179.91;4995784;28;20050;-78
2021/04/22 08:30:43;;;;;;;19.50;3.15;;;;;;;5.84;100.00;98167.53;5016389;28;20060;-80
2021/04/22 08:33:10;;;;;;;20.83;3.47;;;;;;;6.12;100.00;98157.03;5007147;28;20109;-77
2021/04/22 08:35:37;;;;;;;24.02;4.18;;;;;;;6.34;100.00;98170.13;5044250;28;20045;-79
2021/04/22 08:38:04;;;;;;;21.65;3.13;;;;;;;6.18;100.00;98158.63;5035998;28;20048;-78
2021/04/22 08:40:30;;;;;;;20.05;3.15;;;;;;;6.35;100.00;98165.56;5034613;28;20056;-78
2021/04/22 08:42:58;;;;;;;23.85;4.05;;;;;;;6.57;96.70;98168.69;4999992;28;20049;-79
2021/04/22 08:45:25;;;;;;;32.20;3.47;;;;;;;6.58;93.17;98164.94;5034806;28;20057;-78
2021/04/22 08:47:51;;;;;;;21.85;2.63;;;;;;;6.58;100.00;98170.31;5034356;28;20083;-79
2021/04/22 08:50:29;;;;;;;18.52;3.40;;;;;;;6.67;90.27;98169.47;5033207;28;20149;-80
2021/04/22 08:52:59;;;;;;;21.25;3.10;;;;;;;6.46;84.73;98172.50;5034348;28;20052;-79
2021/04/22 08:55:28;;;;;;;21.73;3.80;;;;;;;6.49;89.25;98172.75;5017549;28;20060;-78
2021/04/22 08:57:57;;;;;;;19.23;3.40;;;;;;;6.96;90.35;98166.91;5035418;28;20061;-80
2021/04/22 09:00:25;;;;;;;23.67;3.42;;;;;;;7.30;84.71;98180.41;5018923;28;20080;-79
2021/04/22 09:02:52;;;;;;;20.00;3.53;;;;;;;7.45;84.52;98177.59;5037048;28;20204;-78
2021/04/22 09:05:20;;;;;;;20.98;3.35;;;;;;;7.62;74.19;98169.91;5037456;28;20103;-79
2021/04/22 09:07:49;;;;;;;16.05;3.17;;;;;;;7.79;74.14;98156.03;5035161;28;20489;-79
2021/04/22 09:10:19;;;;;;;18.58;3.78;;;;;;;7.54;70.14;98163.22;5035095;28;20056;-79
2021/04/22 09:12:55;;;;;;;21.05;3.53;;;;;;;7.60;70.04;98173.97;5018099;28;20037;-79
2021/04/22 09:15:22;;;;;;;21.83;3.50;;;;;;;7.39;71.87;98184.91;5034398;28;20076;-78
2021/04/22 09:17:58;;;;;;;17.27;3.20;;;;;;;7.40;79.61;98170.38;5034047;28;20049;-79
2021/04/22 09:20:52;;;;;;;20.35;3.90;;;;;;;7.64;79.09;98197.38;5033129;28;20049;-79
2021/04/22 09:23:27;;;;;;;20.08;3.63;;;;;;;7.03;75.40;98177.34;5030813;28;20095;-79
2021/04/22 09:26:08;;;;;;;21.55;3.58;;;;;;;7.46;78.93;98187.28;5033415;28;20048;-79
2021/04/22 09:28:37;;;;;;;18.02;3.15;;;;;;;7.42;74.91;98181.66;5033889;28;20037;-79
2021/04/22 09:31:05;;;;;;;14.35;3.35;;;;;;;7.48;76.05;98180.50;5018586;28;20082;-78
2021/04/22 09:33:34;;;;;;;19.35;3.38;;;;;;;7.81;77.59;98183.50;5041454;28;20053;-80
2021/04/22 09:36:09;;;;;;;25.13;3.90;;;;;;;7.92;70.93;98172.31;5036782;28;20050;-79
2021/04/22 09:38:36;;;;;;;18.60;3.83;;;;;;;8.25;72.25;98186.03;5019810;28;20048;-79
2021/04/22 09:41:24;;;;;;;24.33;3.55;;;;;;;7.80;75.68;98187.25;5021583;28;20103;-80
2021/04/22 09:44:11;;;;;;;22.35;3.88;;;;;;;7.72;79.29;98179.78;5042436;28;20094;-78
2021/04/22 09:46:42;;;;;;;24.95;3.95;;;;;;;8.04;71.24;98178.16;5032818;28;20105;-76
2021/04/22 09:49:11;;;;;;;28.25;4.25;;;;;;;8.38;69.55;98180.78;5030358;28;20046;-79
2021/04/22 09:51:39;;;;;;;29.52;4.18;;;;;;;8.32;66.89;98167.63;5043268;28;20049;-78
2021/04/22 09:54:14;;;;;;;12.45;3.25;;;;;;;8.21;70.67;98166.13;5043211;28;20046;-79
2021/04/22 09:56:42;;;;;;;20.33;4.00;;;;;;;7.93;75.26;98187.41;5040022;28;20096;-79
2021/04/22 09:59:09;;;;;;;12.02;2.88;;;;;;;8.98;63.59;98168.41;5040826;28;20132;-80
2021/04/22 10:01:36;;;;;;;20.63;3.40;;;;;;;10.56;60.66;98173.59;5040125;28;20046;-80
2021/04/22 10:04:03;;;;;;;17.15;2.88;;;;;;;10.38;58.25;98167.19;5023204;28;20052;-78
2021/04/22 10:06:44;;;;;;;15.10;3.25;;;;;;;9.64;53.55;98179.03;5036066;28;20050;-76
2021/04/22 10:09:12;;;;;;;18.63;4.00;;;;;;;9.05;58.01;98159.94;5051787;28;20109;-79
2021/04/22 10:11:50;;;;;;;19.98;3.65;;;;;;;8.57;62.03;98187.03;5050592;28;20049;-79
2021/04/22 10:14:31;;;;;;;23.65;4.07;;;;;;;9.08;58.97;98186.38;5047292;28;20431;-79
2021/04/22 10:16:58;;;;;;;11.63;3.15;;;;;;;10.24;55.21;98176.41;5028783;28;20053;-78
2021/04/22 10:19:24;;;;;;;19.85;3.42;;;;;;;10.44;55.74;98174.13;5043875;28;20056;-78
2021/04/22 10:21:50;;;;;;;24.48;4.05;;;;;;;9.51;56.37;98185.19;5043723;28;20104;-79
2021/04/22 10:24:17;;;;;;;17.83;3.50;;;;;;;9.10;60.71;98171.50;5042232;28;20103;-78
2021/04/22 10:26:45;;;;;;;17.00;3.53;;;;;;;8.50;56.84;98197.38;5065203;22;20144;-78
2021/04/22 10:29:12;;;;;;;28.23;3.35;;;;;;;9.73;54.26;98182.66;5057592;28;20045;-78
2021/04/22 10:31:39;;;;;;;21.30;3.47;;;;;;;9.46;52.56;98185.28;5047967;28;20067;-77
2021/04/22 10:34:10;;;;;;;17.98;3.60;;;;;;;9.64;54.27;98186.34;5056021;28;20045;-78
2021/04/22 10:36:38;;;;;;;18.05;3.47;;;;;;;8.93;55.14;98192.78;5056949;28;20056;-77
2021/04/22 10:39:05;;;;;;;15.95;3.78;;;;;;;8.28;59.39;98162.03;5056724;28;20045;-78
2021/04/22 10:41:32;;;;;;;20.83;3.60;;;;;;;8.18;62.05;98179.06;5039214;28;20060;-78
2021/04/22 10:44:00;;;;;;;16.75;3.30;;;;;;;9.45;57.48;98191.75;5057212;28;20041;-78
2021/04/22 10:46:28;;;;;;;12.25;2.45;;;;;;;11.15;49.49;98181.53;5057541;28;20045;-79
2021/04/22 10:48:55;;;;;;;15.82;3.35;;;;;;;12.79;47.07;98181.47;5058658;28;20045;-78
2021/04/22 10:51:23;;;;;;;15.55;3.20;;;;;;;12.72;45.60;98177.59;5060444;28;20048;-78
2021/04/22 10:53:53;;;;;;;15.38;3.60;;;;;;;13.14;43.24;98171.47;5058373;28;20036;-78
2021/04/22 10:56:30;;;;;;;18.13;3.58;;;;;;;10.73;48.33;98171.09;5057661;28;20045;-78
2021/04/22 10:58:57;;;;;;;16.80;3.28;;;;;;;9.86;52.70;98168.38;5058935;28;20043;-79
2021/04/22 11:01:37;;;;;;;20.38;3.88;;;;;;;8.82;53.40;98164.31;5059178;28;20133;-79
2021/04/22 11:04:09;;;;;;;15.30;3.92;;;;;;;8.86;55.02;98162.63;5023902;28;20071;-78
2021/04/22 11:06:39;;;;;;;18.60;3.58;;;;;;;9.23;53.97;98162.66;5057902;28;20041;-78
2021/04/22 11:09:21;;;;;;;16.73;3.72;;;;;;;10.71;51.72;98172.50;5039950;28;20110;-79
2021/04/22 11:11:55;;;;;;;12.68;3.60;;;;;;;10.85;47.70;98165.97;5039547;28;20056;-79
2021/04/22 11:14:21;;;;;;;14.43;3.65;;;;;;;10.35;50.99;98165.06;5039248;28;20052;-78
2021/04/22 11:16:53;;;;;;;15.57;3.50;;;;;;;10.92;48.26;98169.06;5056844;28;20045;-78
2021/04/22 11:19:23;;;;;;;10.43;3.30;;;;;;;11.76;45.07;98153.84;5057607;28;20049;-79
2021/04/22 11:21:51;;;;;;;19.55;3.55;;;;;;;11.42;46.15;98156.28;5057405;28;20140;-78
2021/04/22 11:24:31;;;;;;;19.98;3.30;;;;;;;10.18;49.47;98158.66;5057167;28;20037;-79
2021/04/22 11:27:09;;;;;;;13.75;3.95;;;;;;;10.24;53.69;98154.75;5057442;28;20041;-79
2021/04/22 11:29:42;;;;;;;13.30;3.80;;;;;;;9.83;54.68;98168.19;5058074;28;20049;-78
2021/04/22 11:32:42;;;;;;;15.00;3.60;;;;;;;10.30;51.49;98178.69;5061788;28;20067;-79